createdAt,value
2022-09-13T00:01:25.825Z,94052.09
2022-09-13T00:03:52.616Z,94048.47
2022-09-13T00:06:21.800Z,94049.56
2022-09-13T00:08:48.931Z,94049.13
2022-09-13T00:11:21.349Z,94051.25
2022-09-13T00:13:48.219Z,94044.69
2022-09-13T00:16:17.179Z,94043.53
2022-09-13T00:18:44.127Z,94044.31
2022-09-13T00:21:18.788Z,94034.38
2022-09-13T00:23:50.387Z,94037.25
2022-09-13T00:26:19.868Z,94039.31
2022-09-13T00:28:51.699Z,94031.84
2022-09-13T00:31:19.043Z,94032.59
2022-09-13T00:33:46.088Z,94040.09
2022-09-13T00:36:13.090Z,94037.19
2022-09-13T00:38:40.463Z,94036.56
2022-09-13T00:41:11.139Z,94032.75
2022-09-13T00:43:44.567Z,94025.66
2022-09-13T00:46:20.821Z,94029.63
2022-09-13T00:48:47.776Z,94021.56
2022-09-13T00:51:14.960Z,94026.97
2022-09-13T00:53:44.971Z,94021.94
2022-09-13T00:56:18.149Z,94021.34
2022-09-13T00:58:50.078Z,94018.25
2022-09-13T01:01:17.999Z,94020.84
2022-09-13T01:03:45.834Z,94017.44
2022-09-13T01:06:25.501Z,94009.41
2022-09-13T01:08:53.596Z,94003.78
2022-09-13T01:11:28.459Z,94002.09
2022-09-13T01:13:55.388Z,94002.63
2022-09-13T01:16:22.311Z,93992.03
2022-09-13T01:18:49.067Z,93996.56
2022-09-13T01:21:34.189Z,94003.47
2022-09-13T01:24:30.274Z,93999.88
2022-09-13T01:27:15.277Z,93992.72
2022-09-13T01:30:15.748Z,93997.44
2022-09-13T01:33:01.854Z,94001.03
2022-09-13T01:35:34.471Z,93996.00
2022-09-13T01:38:08.479Z,93996.53
2022-09-13T01:41:05.002Z,93990.66
2022-09-13T01:43:43.106Z,93985.59
2022-09-13T01:46:36.030Z,93989.41
2022-09-13T01:49:11.808Z,93977.09
2022-09-13T01:51:54.861Z,93983.50
2022-09-13T01:54:38.800Z,93978.13
2022-09-13T01:57:18.329Z,93978.75
2022-09-13T01:59:54.440Z,93970.28
2022-09-13T02:02:28.822Z,93970.34
2022-09-13T02:05:01.049Z,93967.09
2022-09-13T02:08:05.029Z,93975.25
2022-09-13T02:10:36.453Z,93965.00
2022-09-13T02:13:06.525Z,93959.59
2022-09-13T02:15:46.908Z,93969.75
2022-09-13T02:18:18.809Z,93960.53
2022-09-13T02:20:47.959Z,93959.22
2022-09-13T02:23:17.779Z,93958.00
2022-09-13T02:25:46.689Z,93953.19
2022-09-13T02:28:16.858Z,93955.94
2022-09-13T02:30:48.528Z,93956.50
2022-09-13T02:33:39.629Z,93954.19
2022-09-13T02:36:10.044Z,93952.75
2022-09-13T02:38:45.738Z,93955.94
2022-09-13T02:41:19.368Z,93953.13
2022-09-13T02:43:57.035Z,93949.94
2022-09-13T02:46:59.470Z,93948.94
2022-09-13T02:49:46.069Z,93952.53
2022-09-13T02:52:33.398Z,93949.16
2022-09-13T02:55:34.379Z,93951.59
2022-09-13T02:58:10.167Z,93952.91
2022-09-13T03:00:37.634Z,93957.31
2022-09-13T03:03:06.989Z,93952.34
2022-09-13T03:05:33.817Z,93955.84
2022-09-13T03:08:01.299Z,93951.91
2022-09-13T03:10:42.577Z,93953.03
2022-09-13T03:13:25.639Z,93943.84
2022-09-13T03:16:24.085Z,93951.19
2022-09-13T03:19:28.648Z,93954.50
2022-09-13T03:21:55.270Z,93958.09
2022-09-13T03:24:59.800Z,93962.03
2022-09-13T03:27:29.328Z,93960.16
2022-09-13T03:30:06.215Z,93951.66
2022-09-13T03:32:35.769Z,93951.88
2022-09-13T03:35:08.428Z,93946.28
2022-09-13T03:37:35.137Z,93953.47
2022-09-13T03:40:13.609Z,93950.38
2022-09-13T03:42:48.689Z,93944.53
2022-09-13T03:45:17.679Z,93948.06
2022-09-13T03:47:45.739Z,93942.53
2022-09-13T03:50:17.449Z,93947.25
2022-09-13T03:52:46.561Z,93941.47
2022-09-13T03:55:13.479Z,93941.47
2022-09-13T03:57:40.318Z,93948.56
2022-09-13T04:00:07.659Z,93952.78
2022-09-13T04:02:34.461Z,93949.63
2022-09-13T04:05:01.779Z,93947.06
2022-09-13T04:07:28.476Z,93947.16
2022-09-13T04:09:56.141Z,93947.78
2022-09-13T04:12:23.216Z,93952.91
2022-09-13T04:14:50.005Z,93939.69
2022-09-13T04:17:16.649Z,93955.31
2022-09-13T04:19:45.249Z,93950.59
2022-09-13T04:22:11.874Z,93951.66
2022-09-13T04:24:39.829Z,93961.13
2022-09-13T04:27:07.029Z,93951.22
2022-09-13T04:29:33.993Z,93959.47
2022-09-13T04:32:00.923Z,93960.50
2022-09-13T04:34:28.137Z,93959.53
2022-09-13T04:36:54.919Z,93961.13
2022-09-13T04:39:21.838Z,93960.31
2022-09-13T04:41:49.067Z,93963.44
2022-09-13T04:44:17.142Z,93960.25
2022-09-13T04:46:48.213Z,93958.84
2022-09-13T04:49:16.017Z,93951.97
2022-09-13T04:51:42.795Z,93959.34
2022-09-13T04:54:14.972Z,93959.47
2022-09-13T04:56:43.413Z,93962.53
2022-09-13T04:59:11.268Z,93963.75
2022-09-13T05:01:38.134Z,93970.53
2022-09-13T05:04:06.086Z,93966.16
2022-09-13T05:06:32.669Z,93970.00
2022-09-13T05:08:59.464Z,93968.84
2022-09-13T05:11:27.606Z,93970.84
2022-09-13T05:13:58.730Z,93976.22
2022-09-13T05:16:27.214Z,93972.41
2022-09-13T05:18:54.680Z,93969.53
2022-09-13T05:21:21.837Z,93976.63
2022-09-13T05:23:52.596Z,93964.44
2022-09-13T05:26:20.088Z,93973.44
2022-09-13T05:28:47.030Z,93969.19
2022-09-13T05:31:15.700Z,93966.63
2022-09-13T05:33:42.904Z,93969.19
2022-09-13T05:36:09.595Z,93971.19
2022-09-13T05:38:36.286Z,93970.50
2022-09-13T05:41:05.395Z,93969.34
2022-09-13T05:43:34.756Z,93962.84
2022-09-13T05:46:06.340Z,93965.75
2022-09-13T05:48:34.697Z,93950.50
2022-09-13T05:51:10.294Z,93958.88
2022-09-13T05:53:39.905Z,93961.66
2022-09-13T05:56:07.936Z,93960.47
2022-09-13T05:58:35.594Z,93950.53
2022-09-13T06:01:02.295Z,93959.63
2022-09-13T06:03:29.054Z,93957.53
2022-09-13T06:05:58.743Z,93951.19
2022-09-13T06:08:29.976Z,93955.41
2022-09-13T06:10:57.706Z,93952.44
2022-09-13T06:13:25.262Z,93944.72
2022-09-13T06:15:52.765Z,93945.56
2022-09-13T06:18:19.872Z,93932.66
2022-09-13T06:20:47.680Z,93936.91
2022-09-13T06:23:15.303Z,93938.81
2022-09-13T06:25:42.580Z,93935.38
2022-09-13T06:28:09.964Z,93937.97
2022-09-13T06:30:36.637Z,93935.09
2022-09-13T06:33:03.483Z,93939.00
2022-09-13T06:35:30.366Z,93936.34
2022-09-13T06:37:58.696Z,93934.88
2022-09-13T06:40:26.190Z,93941.91
2022-09-13T06:42:53.138Z,93949.94
2022-09-13T06:45:20.248Z,93949.97
2022-09-13T06:47:47.455Z,93960.41
2022-09-13T06:50:14.913Z,93966.94
2022-09-13T06:52:44.826Z,93969.22
2022-09-13T06:55:12.851Z,93974.59
2022-09-13T06:57:39.645Z,93982.66
2022-09-13T07:00:07.213Z,93986.75
2022-09-13T07:02:33.986Z,93981.31
2022-09-13T07:05:00.708Z,93988.09
2022-09-13T07:07:27.428Z,93985.47
2022-09-13T07:09:54.434Z,93980.09
2022-09-13T07:12:21.212Z,93978.72
2022-09-13T07:14:48.093Z,93980.38
2022-09-13T07:17:14.908Z,93984.78
2022-09-13T07:19:41.684Z,93971.44
2022-09-13T07:22:08.455Z,93968.47
2022-09-13T07:24:35.185Z,93960.88
2022-09-13T07:27:01.985Z,93963.78
2022-09-13T07:29:28.823Z,93961.22
2022-09-13T07:31:56.906Z,93956.94
2022-09-13T07:34:24.999Z,93956.47
2022-09-13T07:36:52.693Z,93949.50
2022-09-13T07:39:22.630Z,93947.75
2022-09-13T07:41:50.065Z,93946.13
2022-09-13T07:44:16.797Z,93956.69
2022-09-13T07:46:46.466Z,93957.00
2022-09-13T07:49:14.496Z,93953.59
2022-09-13T07:51:42.846Z,93944.94
2022-09-13T07:54:14.897Z,93946.38
2022-09-13T07:56:42.243Z,93941.31
2022-09-13T07:59:13.676Z,93951.13
2022-09-13T08:01:42.339Z,93943.06
2022-09-13T08:04:12.573Z,93956.00
2022-09-13T08:06:40.104Z,93942.81
2022-09-13T08:09:08.837Z,93952.72
2022-09-13T08:11:40.766Z,93957.94
2022-09-13T08:14:09.622Z,93959.91
2022-09-13T08:16:36.515Z,93949.47
2022-09-13T08:19:04.849Z,93952.09
2022-09-13T08:21:37.103Z,93955.28
2022-09-13T08:24:05.173Z,93946.06
2022-09-13T08:26:33.699Z,93942.59
2022-09-13T08:29:03.414Z,93948.41
2022-09-13T08:31:30.585Z,93948.91
2022-09-13T08:33:57.997Z,93954.38
2022-09-13T08:36:26.223Z,93956.41
2022-09-13T08:38:59.274Z,93950.72
2022-09-13T08:41:38.727Z,93961.81
2022-09-13T08:44:23.566Z,93959.91
2022-09-13T08:46:51.104Z,93957.88
2022-09-13T08:49:24.713Z,93962.31
2022-09-13T08:52:16.614Z,93957.81
2022-09-13T08:54:43.749Z,93961.97
2022-09-13T08:57:19.184Z,93957.75
2022-09-13T08:59:59.503Z,93952.25
2022-09-13T09:02:54.426Z,93959.25
2022-09-13T09:05:24.034Z,93956.69
2022-09-13T09:08:10.854Z,93961.31
2022-09-13T09:10:41.804Z,93947.59
2022-09-13T09:13:28.723Z,93955.97
2022-09-13T09:15:58.966Z,93958.31
2022-09-13T09:18:29.726Z,93955.25
2022-09-13T09:20:57.613Z,93956.88
2022-09-13T09:23:35.916Z,93944.88
2022-09-13T09:26:27.245Z,93953.03
2022-09-13T09:28:58.686Z,93940.09
2022-09-13T09:31:28.516Z,93941.50
2022-09-13T09:34:12.367Z,93934.56
2022-09-13T09:36:46.325Z,93939.75
2022-09-13T09:39:16.281Z,93935.22
2022-09-13T09:41:46.292Z,93925.88
2022-09-13T09:44:21.604Z,93906.94
2022-09-13T09:47:10.965Z,93914.63
2022-09-13T09:50:07.741Z,93907.44
2022-09-13T09:53:03.754Z,93902.78
2022-09-13T09:55:44.601Z,93899.72
2022-09-13T09:58:12.983Z,93893.22
2022-09-13T10:00:52.764Z,93886.66
2022-09-13T10:03:28.237Z,93879.28
2022-09-13T10:06:06.075Z,93887.03
2022-09-13T10:08:35.728Z,93876.81
2022-09-13T10:11:02.514Z,93870.75
2022-09-13T10:13:31.947Z,93869.38
2022-09-13T10:16:27.519Z,93862.84
2022-09-13T10:18:54.472Z,93866.03
2022-09-13T10:21:27.371Z,93849.84
2022-09-13T10:24:16.695Z,93860.72
2022-09-13T10:26:43.519Z,93850.47
2022-09-13T10:29:15.356Z,93840.25
2022-09-13T10:31:44.295Z,93836.28
2022-09-13T10:34:21.191Z,93848.09
2022-09-13T10:36:56.681Z,93841.75
2022-09-13T10:39:24.771Z,93832.72
2022-09-13T10:42:01.731Z,93834.28
2022-09-13T10:44:44.255Z,93837.28
2022-09-13T10:47:31.614Z,93825.16
2022-09-13T10:49:59.693Z,93834.16
2022-09-13T10:52:32.237Z,93831.94
2022-09-13T10:55:20.396Z,93822.50
2022-09-13T10:57:51.451Z,93818.53
2022-09-13T11:00:24.719Z,93810.34
2022-09-13T11:03:01.504Z,93808.47
2022-09-13T11:05:38.674Z,93793.13
2022-09-13T11:08:34.369Z,93802.41
2022-09-13T11:11:22.204Z,93796.97
2022-09-13T11:14:12.171Z,93799.19
2022-09-13T11:16:41.717Z,93806.53
2022-09-13T11:19:39.554Z,93801.25
2022-09-13T11:22:18.138Z,93790.63
2022-09-13T11:25:15.349Z,93792.25
2022-09-13T11:28:03.303Z,93791.28
2022-09-13T11:30:33.589Z,93794.59
2022-09-13T11:33:54.626Z,93784.66
2022-09-13T11:36:57.645Z,93778.16
2022-09-13T11:39:39.194Z,93775.00
2022-09-13T11:42:28.184Z,93778.66
2022-09-13T11:45:22.209Z,93768.41
2022-09-13T11:48:13.612Z,93772.03
2022-09-13T11:50:49.177Z,93766.13
2022-09-13T11:53:37.806Z,93770.75
2022-09-13T11:56:09.145Z,93765.53
2022-09-13T11:58:48.470Z,93761.63
2022-09-13T12:01:24.992Z,93762.31
2022-09-13T12:04:11.650Z,93765.97
2022-09-13T12:06:40.946Z,93762.91
2022-09-13T12:09:17.013Z,93759.09
2022-09-13T12:11:55.075Z,93762.97
2022-09-13T12:14:23.993Z,93759.38
2022-09-13T12:16:54.371Z,93755.66
2022-09-13T12:19:26.525Z,93756.91
2022-09-13T12:21:57.186Z,93751.44
2022-09-13T12:24:56.971Z,93746.47
2022-09-13T12:27:39.796Z,93746.69
2022-09-13T12:30:21.307Z,93745.44
2022-09-13T12:32:49.213Z,93741.66
2022-09-13T12:35:21.917Z,93733.25
2022-09-13T12:38:07.148Z,93746.84
2022-09-13T12:40:34.072Z,93748.06
2022-09-13T12:43:23.526Z,93739.81
2022-09-13T12:46:05.701Z,93730.44
2022-09-13T12:49:10.154Z,93729.63
2022-09-13T12:51:43.033Z,93732.47
2022-09-13T12:54:22.903Z,93728.41
2022-09-13T12:56:56.871Z,93733.53
2022-09-13T12:59:55.014Z,93730.41
2022-09-13T13:02:28.962Z,93722.53
2022-09-13T13:05:22.047Z,93729.63
2022-09-13T13:08:14.367Z,93726.75
2022-09-13T13:10:41.127Z,93724.78
2022-09-13T13:13:21.596Z,93724.94
2022-09-13T13:15:50.267Z,93721.66
2022-09-13T13:18:43.976Z,93706.88
2022-09-13T13:21:25.252Z,93711.84
2022-09-13T13:24:16.653Z,93707.38
2022-09-13T13:26:43.316Z,93707.72
2022-09-13T13:29:15.763Z,93705.72
2022-09-13T13:32:04.783Z,93699.50
2022-09-13T13:34:36.085Z,93697.47
2022-09-13T13:37:04.971Z,93698.16
2022-09-13T13:39:31.721Z,93695.72
2022-09-13T13:42:27.145Z,93697.59
2022-09-13T13:44:53.926Z,93698.72
2022-09-13T13:47:20.595Z,93694.84
2022-09-13T13:50:14.922Z,93698.13
2022-09-13T13:52:47.937Z,93695.75
2022-09-13T13:55:41.144Z,93693.56
2022-09-13T13:58:07.857Z,93683.25
2022-09-13T14:00:35.704Z,93676.81
2022-09-13T14:03:02.451Z,93673.97
2022-09-13T14:06:02.146Z,93681.13
2022-09-13T14:08:46.575Z,93683.88
2022-09-13T14:11:35.163Z,93678.53
2022-09-13T14:14:33.933Z,93687.88
2022-09-13T14:17:25.432Z,93682.00
2022-09-13T14:19:56.873Z,93686.41
2022-09-13T14:22:25.444Z,93678.56
2022-09-13T14:24:56.953Z,93682.13
2022-09-13T14:27:24.824Z,93684.28
2022-09-13T14:29:54.473Z,93674.41
2022-09-13T14:32:24.333Z,93672.25
2022-09-13T14:34:54.971Z,93662.78
2022-09-13T14:37:29.859Z,93653.13
2022-09-13T14:40:18.717Z,93657.31
2022-09-13T14:42:47.548Z,93670.59
2022-09-13T14:45:22.504Z,93667.00
2022-09-13T14:48:17.636Z,93671.56
2022-09-13T14:50:53.895Z,93668.09
2022-09-13T14:53:23.591Z,93669.97
2022-09-13T14:55:53.415Z,93667.28
2022-09-13T14:58:25.575Z,93660.16
2022-09-13T15:01:06.815Z,93670.31
2022-09-13T15:03:33.863Z,93662.50
2022-09-13T15:06:02.287Z,93665.94
2022-09-13T15:08:34.723Z,93663.13
2022-09-13T15:11:05.835Z,93669.97
2022-09-13T15:13:33.795Z,93667.25
2022-09-13T15:16:01.578Z,93662.78
2022-09-13T15:18:36.566Z,93669.03
2022-09-13T15:21:09.423Z,93672.47
2022-09-13T15:23:38.989Z,93667.78
2022-09-13T15:26:28.444Z,93666.50
2022-09-13T15:28:57.893Z,93670.53
2022-09-13T15:31:27.301Z,93665.34
2022-09-13T15:34:23.824Z,93669.91
2022-09-13T15:37:13.403Z,93664.63
2022-09-13T15:39:50.576Z,93658.03
2022-09-13T15:42:17.763Z,93655.00
2022-09-13T15:44:44.716Z,93654.19
2022-09-13T15:47:16.764Z,93649.50
2022-09-13T15:49:49.607Z,93649.97
2022-09-13T15:52:17.716Z,93639.44
2022-09-13T15:54:48.266Z,93641.06
2022-09-13T15:57:26.206Z,93640.88
2022-09-13T15:59:54.540Z,93633.72
2022-09-13T16:02:25.673Z,93637.53
2022-09-13T16:04:52.854Z,93632.63
2022-09-13T16:07:19.934Z,93629.94
2022-09-13T16:09:48.095Z,93631.16
2022-09-13T16:12:15.277Z,93627.22
2022-09-13T16:14:42.119Z,93620.97
2022-09-13T16:17:26.184Z,93620.56
2022-09-13T16:19:54.186Z,93611.88
2022-09-13T16:22:21.123Z,93612.00
2022-09-13T16:24:47.869Z,93622.19
2022-09-13T16:27:16.630Z,93618.22
2022-09-13T16:29:43.297Z,93625.84
2022-09-13T16:32:10.174Z,93629.84
2022-09-13T16:34:36.935Z,93621.84
2022-09-13T16:37:04.157Z,93623.41
2022-09-13T16:39:30.762Z,93621.44
2022-09-13T16:41:57.510Z,93619.88
2022-09-13T16:44:24.370Z,93621.69
2022-09-13T16:46:51.229Z,93617.78
2022-09-13T16:49:18.282Z,93620.00
2022-09-13T16:51:45.003Z,93620.28
2022-09-13T16:54:11.698Z,93625.66
2022-09-13T16:56:38.412Z,93620.56
2022-09-13T16:59:05.101Z,93630.09
2022-09-13T17:01:32.461Z,93621.91
2022-09-13T17:03:59.456Z,93622.59
2022-09-13T17:06:26.978Z,93626.81
2022-09-13T17:08:56.590Z,93633.50
2022-09-13T17:11:25.714Z,93634.22
2022-09-13T17:13:52.812Z,93629.22
2022-09-13T17:16:31.196Z,93628.38
2022-09-13T17:19:00.127Z,93633.44
2022-09-13T17:21:27.610Z,93635.56
2022-09-13T17:23:55.993Z,93632.94
2022-09-13T17:26:23.360Z,93638.63
2022-09-13T17:28:50.367Z,93636.38
2022-09-13T17:31:17.131Z,93638.22
2022-09-13T17:33:43.947Z,93629.59
2022-09-13T17:36:12.559Z,93625.94
2022-09-13T17:38:40.512Z,93631.50
2022-09-13T17:41:13.127Z,93634.34
2022-09-13T17:43:41.906Z,93626.94
2022-09-13T17:46:12.118Z,93626.72
2022-09-13T17:48:39.635Z,93624.22
2022-09-13T17:51:14.261Z,93619.03
2022-09-13T17:53:46.327Z,93622.72
2022-09-13T17:56:20.559Z,93625.50
2022-09-13T17:58:47.395Z,93622.66
2022-09-13T18:01:14.537Z,93619.13
2022-09-13T18:03:41.777Z,93618.28
2022-09-13T18:06:09.792Z,93621.72
2022-09-13T18:08:38.322Z,93631.53
2022-09-13T18:11:20.534Z,93635.69
2022-09-13T18:13:49.267Z,93638.69
2022-09-13T18:16:22.277Z,93644.47
2022-09-13T18:18:50.930Z,93640.81
2022-09-13T18:21:22.516Z,93640.25
2022-09-13T18:23:50.569Z,93641.75
2022-09-13T18:26:19.884Z,93638.06
2022-09-13T18:28:47.327Z,93636.47
2022-09-13T18:31:16.325Z,93641.56
2022-09-13T18:33:45.490Z,93640.03
2022-09-13T18:36:14.574Z,93640.09
2022-09-13T18:38:43.725Z,93636.13
2022-09-13T18:41:21.693Z,93637.13
2022-09-13T18:43:55.350Z,93640.06
2022-09-13T18:46:25.445Z,93636.97
2022-09-13T18:48:55.131Z,93653.22
2022-09-13T18:51:24.818Z,93666.84
2022-09-13T18:53:52.314Z,93665.78
2022-09-13T18:56:25.300Z,93667.88
2022-09-13T18:58:54.468Z,93671.03
2022-09-13T19:01:27.373Z,93672.38
2022-09-13T19:04:02.244Z,93669.84
2022-09-13T19:06:41.639Z,93665.69
2022-09-13T19:09:10.517Z,93668.59
2022-09-13T19:11:46.711Z,93673.28
2022-09-13T19:14:21.217Z,93673.31
2022-09-13T19:16:51.783Z,93670.50
2022-09-13T19:19:21.158Z,93665.97
2022-09-13T19:21:50.468Z,93670.50
2022-09-13T19:24:22.063Z,93674.91
2022-09-13T19:26:55.548Z,93664.41
2022-09-13T19:29:25.083Z,93671.53
2022-09-13T19:31:58.975Z,93673.59
2022-09-13T19:34:26.825Z,93664.38
2022-09-13T19:36:58.511Z,93656.84
2022-09-13T19:39:29.638Z,93666.06
2022-09-13T19:41:59.577Z,93669.75
2022-09-13T19:44:28.793Z,93665.31
2022-09-13T19:47:40.100Z,93658.81
2022-09-13T19:49:47.326Z,93658.31
2022-09-13T19:52:14.195Z,93661.97
2022-09-13T19:54:42.984Z,93667.19
2022-09-13T19:57:10.763Z,93666.66
2022-09-13T19:59:37.790Z,93660.84
2022-09-13T20:02:05.646Z,93661.69
2022-09-13T20:04:32.699Z,93664.59
2022-09-13T20:07:00.427Z,93667.47
2022-09-13T20:09:28.024Z,93647.34
2022-09-13T20:12:00.741Z,93656.25
2022-09-13T20:14:27.927Z,93661.56
2022-09-13T20:16:55.033Z,93661.59
2022-09-13T20:19:41.877Z,93649.28
2022-09-13T20:22:09.751Z,93661.06
2022-09-13T20:24:36.813Z,93656.94
2022-09-13T20:27:03.544Z,93660.34
2022-09-13T20:29:31.635Z,93659.81
2022-09-13T20:31:59.696Z,93651.72
2022-09-13T20:34:27.255Z,93652.78
2022-09-13T20:36:54.044Z,93657.75
2022-09-13T20:39:20.893Z,93648.34
2022-09-13T20:41:49.406Z,93659.13
2022-09-13T20:44:16.162Z,93655.72
2022-09-13T20:46:43.457Z,93650.75
2022-09-13T20:49:10.358Z,93653.88
2022-09-13T20:51:37.443Z,93653.88
2022-09-13T20:54:04.960Z,93651.25
2022-09-13T20:56:34.496Z,93658.91
2022-09-13T20:59:01.797Z,93646.56
2022-09-13T21:01:29.998Z,93648.97
2022-09-13T21:03:57.207Z,93650.53
2022-09-13T21:06:27.316Z,93649.22
2022-09-13T21:08:56.359Z,93646.59
2022-09-13T21:11:27.037Z,93647.88
2022-09-13T21:13:56.327Z,93638.72
2022-09-13T21:16:25.339Z,93640.03
2022-09-13T21:18:53.152Z,93646.56
2022-09-13T21:21:25.065Z,93638.19
2022-09-13T21:23:51.937Z,93647.09
2022-09-13T21:26:21.868Z,93650.25
2022-09-13T21:28:49.308Z,93653.38
2022-09-13T21:31:21.737Z,93661.25
2022-09-13T21:33:49.203Z,93648.13
2022-09-13T21:36:15.774Z,93651.28
2022-09-13T21:38:42.527Z,93656.50
2022-09-13T21:41:15.221Z,93657.56
2022-09-13T21:43:42.668Z,93660.16
2022-09-13T21:46:20.658Z,93648.13
2022-09-13T21:48:48.894Z,93643.66
2022-09-13T21:51:18.159Z,93642.34
2022-09-13T21:53:45.690Z,93646.00
2022-09-13T21:56:14.766Z,93639.75
2022-09-13T21:58:41.773Z,93641.81
2022-09-13T22:01:12.034Z,93640.22
2022-09-13T22:03:40.743Z,93637.09
2022-09-13T22:06:08.624Z,93641.84
2022-09-13T22:08:38.589Z,93637.09
2022-09-13T22:11:10.626Z,93633.41
2022-09-13T22:13:45.406Z,93635.00
2022-09-13T22:16:32.056Z,93634.72
2022-09-13T22:19:13.165Z,93629.75
2022-09-13T22:21:42.149Z,93634.69
2022-09-13T22:24:10.164Z,93631.53
2022-09-13T22:26:39.533Z,93623.41
2022-09-13T22:29:07.685Z,93622.91
2022-09-13T22:31:38.000Z,93613.25
2022-09-13T22:34:05.446Z,93615.06
2022-09-13T22:36:32.609Z,93614.25
2022-09-13T22:38:59.426Z,93608.94
2022-09-13T22:41:28.413Z,93612.66
2022-09-13T22:43:55.534Z,93613.72
2022-09-13T22:46:29.163Z,93614.25
2022-09-13T22:48:56.445Z,93611.59
2022-09-13T22:51:23.522Z,93610.28
2022-09-13T22:53:51.345Z,93610.31
2022-09-13T22:56:26.603Z,93617.13
2022-09-13T22:59:19.816Z,93608.91
2022-09-13T23:01:46.943Z,93613.63
2022-09-13T23:04:14.095Z,93606.03
2022-09-13T23:06:44.016Z,93601.25
2022-09-13T23:09:12.304Z,93604.41
2022-09-13T23:11:39.811Z,93603.41
2022-09-13T23:14:13.746Z,93596.63
2022-09-13T23:16:45.453Z,93593.69
2022-09-13T23:19:13.642Z,93582.69
2022-09-13T23:21:40.984Z,93601.84
2022-09-13T23:24:15.541Z,93595.84
2022-09-13T23:26:43.335Z,93596.34
2022-09-13T23:29:27.932Z,93593.97
2022-09-13T23:31:54.702Z,93589.78
2022-09-13T23:34:21.484Z,93585.06
2022-09-13T23:36:48.171Z,93591.31
2022-09-13T23:39:17.668Z,93584.56
2022-09-13T23:41:45.946Z,93577.72
2022-09-13T23:44:12.712Z,93576.69
2022-09-13T23:46:39.464Z,93570.09
2022-09-13T23:49:06.284Z,93573.53
2022-09-13T23:51:33.404Z,93583.94
2022-09-13T23:54:01.210Z,93572.44
2022-09-13T23:56:29.904Z,93582.31
2022-09-13T23:58:57.966Z,93582.59
